Time;durP1;ratioP1;P1;durP2;ratioP2;P2;SDS_P1;SDS_P2;PMS_P1;PMS_P2;Temp;Humidity;BMP_temperature;BMP_pressure;BME280_temperature;BME280_humidity;BME280_pressure;Samples;Min_cycle;Max_cycle;Signal;HPM_P1;HPM_P2
2021/12/13 00:00:00;;;;;;;7.37;4.73;;;9.20;99.90;;;;;;5052502;28;20201;-57
2021/12/13 00:02:32;;;;;;;7.93;4.57;;;9.10;99.90;;;;;;5053043;28;20229;-57
2021/12/13 00:05:06;;;;;;;4.23;3.83;;;9.10;99.90;;;;;;5052629;28;20241;-56
2021/12/13 00:07:37;;;;;;;7.57;4.73;;;9.20;99.90;;;;;;5052334;28;20248;-57
2021/12/13 00:10:11;;;;;;;8.47;4.67;;;9.20;99.90;;;;;;5051956;28;20792;-57
2021/12/13 00:12:42;;;;;;;6.20;4.30;;;9.20;99.90;;;;;;5052296;28;20281;-57
2021/12/13 00:15:14;;;;;;;6.67;4.37;;;9.20;99.90;;;;;;5052238;28;20233;-57
2021/12/13 00:17:45;;;;;;;6.77;4.50;;;9.20;99.90;;;;;;5052209;28;20209;-57
2021/12/13 00:20:19;;;;;;;6.13;4.83;;;9.20;99.90;;;;;;5051970;28;20293;-57
2021/12/13 00:22:51;;;;;;;5.37;4.60;;;9.20;99.90;;;;;;5051913;28;20696;-56
2021/12/13 00:25:20;;;;;;;5.70;4.43;;;9.10;99.90;;;;;;5052225;28;20205;-56
2021/12/13 00:27:49;;;;;;;9.20;4.57;;;9.10;99.90;;;;;;5052042;28;20224;-57
2021/12/13 00:30:23;;;;;;;9.57;4.43;;;9.10;99.90;;;;;;5051761;28;20213;-57
2021/12/13 00:33:03;;;;;;;10.03;4.63;;;9.10;99.90;;;;;;5051847;28;20236;-57
2021/12/13 00:35:42;;;;;;;6.97;4.27;;;9.00;99.90;;;;;;5052070;28;20202;-57
2021/12/13 00:38:13;;;;;;;6.80;4.60;;;9.00;99.90;;;;;;5051822;28;20674;-58
2021/12/13 00:40:44;;;;;;;11.70;4.93;;;8.90;99.90;;;;;;5051610;28;20271;-57
2021/12/13 00:43:15;;;;;;;6.13;4.70;;;8.80;99.90;;;;;;5052339;28;20585;-57
2021/12/13 00:45:50;;;;;;;8.60;4.50;;;8.90;99.90;;;;;;5051858;28;20210;-57
2021/12/13 00:48:18;;;;;;;11.37;5.67;;;8.80;99.90;;;;;;5051785;28;20664;-57
2021/12/13 00:50:51;;;;;;;8.47;5.37;;;8.90;99.90;;;;;;5051502;28;20206;-57
2021/12/13 00:53:21;;;;;;;9.17;5.63;;;9.00;99.90;;;;;;5052031;28;20202;-57
2021/12/13 00:55:49;;;;;;;9.87;5.13;;;9.10;99.90;;;;;;5055604;28;20205;-57
2021/12/13 00:58:18;;;;;;;5.70;5.10;;;9.10;99.90;;;;;;5055941;28;20231;-57
2021/12/13 01:00:48;;;;;;;9.20;5.10;;;9.10;99.90;;;;;;5055687;28;20205;-56
2021/12/13 01:03:17;;;;;;;9.97;4.47;;;9.10;99.90;;;;;;5055787;28;20209;-57
2021/12/13 01:06:01;;;;;;;5.97;3.50;;;9.10;99.90;;;;;;5055512;28;20232;-56
2021/12/13 01:09:42;;;;;;;5.90;3.97;;;9.10;99.90;;;;;;5055586;28;20530;-56
2021/12/13 01:12:12;;;;;;;7.80;3.80;;;9.00;99.90;;;;;;5055478;28;20604;-58
2021/12/13 01:14:57;;;;;;;6.17;4.00;;;9.00;99.90;;;;;;5055341;28;20226;-58
2021/12/13 01:17:39;;;;;;;8.40;4.17;;;9.00;99.90;;;;;;5055710;28;20588;-57
2021/12/13 01:20:16;;;;;;;5.77;4.17;;;9.00;99.90;;;;;;5055278;28;20209;-56
2021/12/13 01:22:49;;;;;;;4.77;4.00;;;8.90;99.90;;;;;;5055370;28;20355;-56
2021/12/13 01:25:40;;;;;;;6.37;4.13;;;8.90;99.90;;;;;;5055318;28;20182;-56
2021/12/13 01:28:14;;;;;;;6.83;4.57;;;8.90;99.90;;;;;;5055640;28;20210;-57
2021/12/13 01:30:46;;;;;;;8.03;4.20;;;9.00;99.90;;;;;;5054987;28;20617;-56
2021/12/13 01:33:14;;;;;;;6.80;4.30;;;9.00;99.90;;;;;;5055232;28;20210;-56
2021/12/13 01:35:45;;;;;;;7.40;4.80;;;9.00;99.90;;;;;;5055040;28;20225;-57
2021/12/13 01:38:17;;;;;;;9.07;4.97;;;9.00;99.90;;;;;;5055574;28;20206;-57
2021/12/13 01:40:49;;;;;;;5.63;4.27;;;9.00;99.90;;;;;;5055155;28;20208;-57
2021/12/13 01:43:19;;;;;;;4.73;4.03;;;9.00;99.90;;;;;;5055348;28;20217;-57
2021/12/13 01:45:49;;;;;;;5.57;4.33;;;9.00;99.90;;;;;;5055455;28;20198;-56
2021/12/13 01:48:19;;;;;;;5.00;4.50;;;8.90;99.90;;;;;;5054893;28;20205;-59
2021/12/13 01:50:52;;;;;;;7.57;4.67;;;8.90;99.90;;;;;;5054582;28;20262;-57
2021/12/13 01:53:29;;;;;;;7.43;5.40;;;8.90;99.90;;;;;;5055156;28;20210;-57
2021/12/13 01:56:00;;;;;;;7.20;4.93;;;8.90;99.90;;;;;;5054973;28;20275;-57
2021/12/13 01:58:38;;;;;;;8.17;5.03;;;8.90;99.90;;;;;;5054736;28;20210;-57
2021/12/13 02:01:10;;;;;;;8.30;5.57;;;8.90;99.90;;;;;;5054426;28;20596;-57
2021/12/13 02:03:54;;;;;;;7.90;5.17;;;8.90;99.90;;;;;;5054917;28;20206;-57
2021/12/13 02:06:40;;;;;;;7.23;5.00;;;8.90;99.90;;;;;;5054091;28;20300;-58
2021/12/13 02:09:11;;;;;;;7.07;4.70;;;8.90;99.90;;;;;;5054196;28;20205;-57
2021/12/13 02:11:41;;;;;;;5.40;4.80;;;8.90;99.90;;;;;;5054423;28;20226;-58
2021/12/13 02:14:14;;;;;;;5.97;4.00;;;8.90;99.90;;;;;;5054311;28;20217;-57
2021/12/13 02:16:59;;;;;;;9.37;4.70;;;8.90;99.90;;;;;;5054422;28;20205;-58
2021/12/13 02:19:42;;;;;;;7.63;5.00;;;8.90;99.90;;;;;;5053901;28;20202;-57
2021/12/13 02:22:40;;;;;;;8.07;5.10;;;8.90;99.90;;;;;;5054245;28;20229;-57
2021/12/13 02:25:18;;;;;;;6.43;4.80;;;8.80;99.90;;;;;;4973169;28;20227;-57
2021/12/13 02:27:48;;;;;;;10.23;5.23;;;8.80;99.90;;;;;;5040352;28;20213;-57
2021/12/13 02:30:22;;;;;;;6.27;4.73;;;8.70;99.90;;;;;;5053688;28;20553;-57
2021/12/13 02:32:49;;;;;;;7.53;4.70;;;8.50;99.90;;;;;;5054054;28;20614;-57
2021/12/13 02:35:19;;;;;;;8.63;5.10;;;8.50;99.90;;;;;;5053841;28;20729;-57
2021/12/13 02:37:47;;;;;;;7.77;5.30;;;8.40;99.90;;;;;;5053865;28;20271;-57
2021/12/13 02:40:18;;;;;;;10.03;5.93;;;8.40;99.90;;;;;;5053798;28;20213;-57
2021/12/13 02:42:46;;;;;;;8.43;5.80;;;8.40;99.90;;;;;;5053556;28;20295;-57
2021/12/13 02:45:18;;;;;;;8.37;5.40;;;8.30;99.90;;;;;;5053776;28;20201;-57
2021/12/13 02:47:53;;;;;;;11.30;6.30;;;8.40;99.90;;;;;;5053609;28;20292;-56
2021/12/13 02:50:27;;;;;;;6.80;5.77;;;8.30;99.90;;;;;;5053337;28;20205;-57
2021/12/13 02:52:54;;;;;;;8.57;6.17;;;8.30;99.90;;;;;;5053364;28;20871;-57
2021/12/13 02:55:28;;;;;;;9.00;5.97;;;8.30;99.90;;;;;;5053697;28;20229;-57
2021/12/13 02:57:58;;;;;;;8.03;5.77;;;8.40;99.90;;;;;;5053565;28;20210;-57
2021/12/13 03:00:28;;;;;;;9.03;6.20;;;8.50;99.90;;;;;;5053545;28;20697;-56
2021/12/13 03:03:00;;;;;;;7.43;5.70;;;8.50;99.90;;;;;;5053143;28;20230;-56
2021/12/13 03:05:32;;;;;;;8.73;5.70;;;8.60;99.90;;;;;;5053631;28;20209;-57
2021/12/13 03:08:04;;;;;;;13.47;5.97;;;8.70;99.90;;;;;;5053442;28;20209;-58
2021/12/13 03:10:39;;;;;;;7.13;5.17;;;8.70;99.90;;;;;;5053242;28;20205;-57
2021/12/13 03:13:06;;;;;;;8.23;5.37;;;8.80;99.90;;;;;;5053067;28;20657;-57
2021/12/13 03:15:34;;;;;;;7.67;5.13;;;8.70;99.90;;;;;;5052957;28;20229;-57
2021/12/13 03:18:10;;;;;;;6.57;5.40;;;8.60;99.90;;;;;;5051934;28;20259;-57
2021/12/13 03:21:03;;;;;;;5.83;4.83;;;8.60;99.90;;;;;;5052827;28;20259;-57
2021/12/13 03:23:52;;;;;;;8.47;5.43;;;8.40;99.90;;;;;;5052942;28;20206;-57
2021/12/13 03:26:47;;;;;;;6.43;5.10;;;8.30;99.90;;;;;;5053188;28;20201;-56
2021/12/13 03:29:19;;;;;;;7.23;5.33;;;8.30;99.90;;;;;;5052942;28;20201;-56
2021/12/13 03:31:50;;;;;;;6.77;5.93;;;8.30;99.90;;;;;;5052820;28;20225;-57
2021/12/13 03:34:23;;;;;;;9.37;6.03;;;8.30;99.90;;;;;;5052701;28;20206;-57
2021/12/13 03:36:59;;;;;;;7.13;6.17;;;8.40;99.90;;;;;;5052875;28;20292;-57
2021/12/13 03:39:29;;;;;;;7.80;6.00;;;8.40;99.90;;;;;;5052605;28;20225;-57
2021/12/13 03:42:01;;;;;;;10.63;6.80;;;8.40;99.90;;;;;;5052499;28;20284;-57
2021/12/13 03:44:31;;;;;;;10.17;6.87;;;8.50;99.90;;;;;;5052634;28;20205;-57
2021/12/13 03:47:03;;;;;;;9.97;6.27;;;8.50;99.90;;;;;;5052417;28;20202;-57
2021/12/13 03:49:31;;;;;;;10.93;6.30;;;8.50;99.90;;;;;;5052622;28;20224;-58
2021/12/13 03:51:59;;;;;;;7.40;6.67;;;8.50;99.90;;;;;;5052589;28;20228;-56
2021/12/13 03:54:28;;;;;;;10.67;7.17;;;8.40;99.90;;;;;;5052433;28;20766;-55
2021/12/13 03:56:57;;;;;;;8.77;5.93;;;8.40;99.90;;;;;;5052549;28;20238;-56
2021/12/13 03:59:28;;;;;;;12.50;7.20;;;8.30;99.90;;;;;;5052391;28;20213;-56
2021/12/13 04:01:58;;;;;;;10.20;7.03;;;8.30;99.90;;;;;;5052419;28;20292;-57
2021/12/13 04:04:33;;;;;;;8.67;6.63;;;8.30;99.90;;;;;;5052113;28;20210;-56
2021/12/13 04:07:06;;;;;;;15.13;7.30;;;8.20;99.90;;;;;;5052114;28;20204;-57
2021/12/13 04:09:32;;;;;;;11.67;7.73;;;8.20;99.90;;;;;;5051951;28;20798;-56
2021/12/13 04:12:07;;;;;;;8.97;7.23;;;8.20;99.90;;;;;;5052374;28;20230;-57
2021/12/13 04:14:47;;;;;;;10.50;8.27;;;8.20;99.90;;;;;;5052300;28;20221;-57
2021/12/13 04:17:33;;;;;;;10.47;7.60;;;8.20;99.90;;;;;;5052259;28;20290;-57
2021/12/13 04:20:01;;;;;;;11.07;7.63;;;8.20;99.90;;;;;;5051750;28;20695;-56
2021/12/13 04:22:31;;;;;;;10.47;7.97;;;8.20;99.90;;;;;;5051861;28;20716;-56
2021/12/13 04:25:01;;;;;;;8.37;7.47;;;8.20;99.90;;;;;;5051962;28;20205;-57
2021/12/13 04:27:34;;;;;;;14.13;7.80;;;8.20;99.90;;;;;;5052046;28;20708;-56
2021/12/13 04:30:13;;;;;;;9.70;7.97;;;8.20;99.90;;;;;;5051344;28;20217;-55
2021/12/13 04:32:44;;;;;;;9.73;7.70;;;8.10;99.90;;;;;;5051716;28;20246;-54
2021/12/13 04:35:13;;;;;;;9.87;7.33;;;7.90;99.90;;;;;;5051961;28;20712;-56
2021/12/13 04:37:46;;;;;;;8.90;6.77;;;7.90;99.90;;;;;;5052031;28;20727;-55
2021/12/13 04:40:18;;;;;;;9.33;7.53;;;7.80;99.90;;;;;;5051731;28;20209;-54
2021/12/13 04:42:51;;;;;;;11.53;7.80;;;7.70;99.90;;;;;;5051512;28;20642;-55
2021/12/13 04:45:20;;;;;;;12.07;7.77;;;7.70;99.90;;;;;;5051783;28;20201;-55
2021/12/13 04:47:53;;;;;;;9.63;7.13;;;7.80;99.90;;;;;;5051934;28;20629;-55
2021/12/13 04:50:24;;;;;;;9.37;7.07;;;7.80;99.90;;;;;;5051564;28;20217;-54
2021/12/13 04:52:52;;;;;;;7.70;6.53;;;7.90;99.90;;;;;;5051829;28;20650;-54
2021/12/13 04:55:22;;;;;;;7.93;6.80;;;7.90;99.90;;;;;;5052217;28;20229;-54
2021/12/13 04:57:52;;;;;;;9.37;6.63;;;7.80;99.90;;;;;;5051536;28;20217;-55
2021/12/13 05:00:23;;;;;;;8.10;6.60;;;7.80;99.90;;;;;;5051564;28;20205;-54
2021/12/13 05:02:53;;;;;;;7.73;5.70;;;7.70;99.90;;;;;;5051689;28;20222;-58
2021/12/13 05:05:21;;;;;;;7.07;6.10;;;7.70;99.90;;;;;;5051650;28;20296;-56
2021/12/13 05:07:50;;;;;;;7.50;5.80;;;7.60;99.90;;;;;;5051520;28;20214;-54
2021/12/13 05:10:18;;;;;;;8.60;6.23;;;7.50;99.90;;;;;;5051202;28;20213;-54
2021/12/13 05:13:05;;;;;;;7.43;5.70;;;7.50;99.90;;;;;;5051481;28;20225;-55
2021/12/13 05:15:33;;;;;;;8.53;6.40;;;7.50;99.90;;;;;;5051660;28;20330;-54
2021/12/13 05:18:05;;;;;;;8.57;6.47;;;7.50;99.90;;;;;;5051460;28;20386;-54
2021/12/13 05:20:37;;;;;;;8.60;6.90;;;7.40;99.90;;;;;;5051182;28;20234;-54
2021/12/13 05:23:09;;;;;;;8.77;6.60;;;7.40;99.90;;;;;;5051804;28;20472;-55
2021/12/13 05:25:39;;;;;;;10.23;7.77;;;7.30;99.90;;;;;;5051610;28;20202;-55
2021/12/13 05:28:11;;;;;;;10.20;6.70;;;7.30;99.90;;;;;;5051279;28;20743;-55
2021/12/13 05:30:45;;;;;;;9.97;6.97;;;7.30;99.90;;;;;;5051125;28;20213;-55
2021/12/13 05:33:16;;;;;;;8.10;6.70;;;7.40;99.90;;;;;;5051517;28;20259;-55
2021/12/13 05:35:47;;;;;;;9.90;6.50;;;7.50;99.90;;;;;;5051368;28;20229;-55
2021/12/13 05:38:26;;;;;;;7.60;6.37;;;7.50;99.90;;;;;;5051331;28;20613;-55
2021/12/13 05:43:26;;;;;;;8.77;7.03;;;7.70;99.90;;;;;;5075771;22;20233;-61
2021/12/13 05:45:58;;;;;;;10.43;6.63;;;7.80;99.90;;;;;;5054653;28;20285;-61
2021/12/13 05:48:39;;;;;;;7.60;6.33;;;7.80;99.90;;;;;;5054992;28;20228;-61
2021/12/13 05:51:18;;;;;;;9.70;5.53;;;7.80;99.90;;;;;;5054472;28;20298;-62
2021/12/13 05:53:47;;;;;;;7.83;5.67;;;7.80;99.90;;;;;;5054646;28;20209;-61
2021/12/13 05:56:16;;;;;;;9.37;6.13;;;7.80;99.90;;;;;;5054469;28;20705;-61
2021/12/13 05:58:48;;;;;;;7.97;5.47;;;7.70;99.90;;;;;;5054595;28;20217;-61
2021/12/13 06:01:19;;;;;;;5.57;4.97;;;7.70;99.90;;;;;;5054381;28;20209;-62
2021/12/13 06:03:52;;;;;;;6.73;5.97;;;7.80;99.90;;;;;;5054447;28;20237;-61
2021/12/13 06:06:24;;;;;;;6.50;5.47;;;7.80;99.90;;;;;;5054234;28;20263;-62
2021/12/13 06:08:54;;;;;;;7.20;5.63;;;7.90;99.90;;;;;;5054523;28;20228;-61
2021/12/13 06:11:28;;;;;;;7.37;5.63;;;7.90;99.90;;;;;;5053960;28;20316;-60
2021/12/13 06:14:15;;;;;;;7.53;5.63;;;7.90;99.90;;;;;;5054297;28;20288;-62
2021/12/13 06:16:56;;;;;;;7.13;6.00;;;7.90;99.90;;;;;;5054237;28;20308;-61
2021/12/13 06:19:30;;;;;;;8.43;5.70;;;7.90;99.90;;;;;;5054002;28;20248;-60
2021/12/13 06:22:04;;;;;;;8.73;6.50;;;7.90;99.90;;;;;;5054005;28;20717;-60
2021/12/13 06:24:35;;;;;;;8.87;6.63;;;8.00;99.90;;;;;;5054212;28;20208;-61
2021/12/13 06:27:06;;;;;;;9.70;6.50;;;8.00;99.90;;;;;;5053937;28;20211;-62
2021/12/13 06:29:52;;;;;;;8.97;6.50;;;7.90;99.90;;;;;;5053705;28;20696;-62
2021/12/13 06:32:25;;;;;;;7.00;6.13;;;7.90;99.90;;;;;;5053986;28;20230;-61
2021/12/13 06:34:52;;;;;;;8.97;6.10;;;7.90;99.90;;;;;;5053686;28;20687;-63
2021/12/13 06:37:25;;;;;;;7.33;6.00;;;8.00;99.90;;;;;;5053667;28;20800;-62
2021/12/13 06:40:09;;;;;;;7.67;6.00;;;8.10;99.90;;;;;;5053594;28;20638;-62
2021/12/13 06:42:35;;;;;;;7.60;5.67;;;8.20;99.90;;;;;;5053633;28;20225;-62
2021/12/13 06:45:19;;;;;;;10.13;5.87;;;8.20;99.90;;;;;;5053713;28;20209;-62
2021/12/13 06:47:49;;;;;;;9.40;7.27;;;8.30;99.90;;;;;;5053484;28;20213;-61
2021/12/13 06:50:22;;;;;;;8.33;6.10;;;8.40;99.90;;;;;;5053085;28;20209;-60
2021/12/13 06:52:49;;;;;;;8.47;7.07;;;8.40;99.90;;;;;;5053410;28;20233;-60
2021/12/13 06:55:19;;;;;;;10.13;8.00;;;8.50;99.90;;;;;;5053495;28;20205;-61
2021/12/13 06:57:49;;;;;;;10.00;7.07;;;8.50;99.90;;;;;;5053133;28;20673;-61
2021/12/13 07:00:32;;;;;;;10.47;6.17;;;8.50;99.90;;;;;;5053005;28;20248;-61
2021/12/13 07:03:01;;;;;;;8.77;6.53;;;8.50;99.90;;;;;;5053533;28;20653;-61
2021/12/13 07:05:31;;;;;;;9.83;7.20;;;8.50;99.90;;;;;;5053481;28;20213;-62
2021/12/13 07:08:01;;;;;;;9.13;6.40;;;8.50;99.90;;;;;;5054053;28;20206;-61
2021/12/13 07:10:32;;;;;;;9.50;6.50;;;8.40;99.90;;;;;;5053769;28;20205;-61
2021/12/13 07:13:00;;;;;;;8.70;6.10;;;8.20;99.90;;;;;;5054244;28;20644;-60
2021/12/13 07:15:39;;;;;;;7.03;5.90;;;8.10;99.90;;;;;;5054743;28;20225;-61
2021/12/13 07:18:12;;;;;;;8.77;6.80;;;8.20;99.90;;;;;;5053464;28;20209;-61
2021/12/13 07:20:43;;;;;;;8.63;6.90;;;8.30;99.90;;;;;;5052668;28;20229;-61
2021/12/13 07:23:10;;;;;;;10.33;6.83;;;8.40;99.90;;;;;;5052957;28;20229;-61
2021/12/13 07:25:41;;;;;;;7.80;6.60;;;8.50;99.90;;;;;;5052676;28;20202;-60
2021/12/13 07:28:08;;;;;;;7.73;6.80;;;8.60;99.90;;;;;;5052884;28;20201;-62
2021/12/13 07:30:39;;;;;;;10.17;7.53;;;8.60;99.90;;;;;;5052801;28;20212;-61
2021/12/13 07:33:08;;;;;;;7.87;6.23;;;8.60;99.90;;;;;;5052758;28;20276;-62
2021/12/13 07:35:37;;;;;;;8.43;6.67;;;8.60;99.90;;;;;;5052730;28;20226;-61
2021/12/13 07:38:06;;;;;;;9.43;6.33;;;8.50;99.90;;;;;;5052641;28;20206;-60
2021/12/13 07:40:38;;;;;;;8.27;6.53;;;8.30;99.90;;;;;;5052618;28;20210;-60
2021/12/13 07:43:19;;;;;;;10.03;7.30;;;8.20;99.90;;;;;;5052187;28;20238;-63
2021/12/13 07:45:53;;;;;;;7.77;6.50;;;8.20;99.90;;;;;;5052211;28;20692;-60
2021/12/13 07:48:24;;;;;;;9.40;6.70;;;8.20;99.90;;;;;;5052384;28;20684;-60
2021/12/13 07:51:01;;;;;;;8.83;6.53;;;8.10;99.90;;;;;;5052432;28;20206;-60
2021/12/13 07:53:29;;;;;;;7.07;6.10;;;8.10;99.90;;;;;;5052505;28;20209;-61
2021/12/13 07:55:57;;;;;;;23.33;16.50;;;8.00;99.90;;;;;;5052276;28;20229;-61
2021/12/13 07:58:38;;;;;;;8.63;7.23;;;8.10;99.90;;;;;;5052350;28;20339;-62
2021/12/13 08:01:14;;;;;;;7.87;6.63;;;8.20;99.90;;;;;;5052567;28;20205;-62
2021/12/13 08:03:48;;;;;;;7.30;6.20;;;8.40;99.90;;;;;;5051615;28;20213;-62
2021/12/13 08:06:15;;;;;;;9.10;6.83;;;8.50;99.90;;;;;;5052204;28;20251;-62
2021/12/13 08:08:52;;;;;;;10.27;6.87;;;8.50;99.90;;;;;;5052114;28;20584;-61
2021/12/13 08:11:37;;;;;;;8.97;7.03;;;8.60;99.90;;;;;;5051765;28;20225;-61
2021/12/13 08:14:04;;;;;;;9.57;7.43;;;8.60;99.90;;;;;;5052220;28;20835;-61
2021/12/13 08:16:35;;;;;;;13.90;6.90;;;8.40;99.90;;;;;;5052076;28;20234;-61
2021/12/13 08:19:09;;;;;;;9.37;7.03;;;8.40;99.90;;;;;;5052099;28;20216;-61
2021/12/13 08:21:40;;;;;;;9.40;7.00;;;8.40;99.90;;;;;;5051692;28;20252;-61
2021/12/13 08:24:08;;;;;;;8.87;6.30;;;8.60;99.90;;;;;;5052345;28;20213;-61
2021/12/13 08:26:38;;;;;;;8.17;6.80;;;8.70;99.90;;;;;;5051915;28;20208;-61
2021/12/13 08:29:11;;;;;;;9.33;6.30;;;8.80;99.90;;;;;;5052007;28;20450;-61
2021/12/13 08:31:40;;;;;;;10.07;8.17;;;9.00;99.90;;;;;;5051546;28;20225;-61
2021/12/13 08:34:10;;;;;;;8.13;5.63;;;9.20;99.90;;;;;;5051849;28;20205;-62
2021/12/13 08:36:41;;;;;;;10.90;7.60;;;9.60;99.90;;;;;;5051867;28;20214;-62
2021/12/13 08:39:11;;;;;;;12.73;7.43;;;9.80;99.90;;;;;;5051898;28;20210;-62
2021/12/13 08:41:42;;;;;;;8.67;5.93;;;10.10;99.90;;;;;;5051257;28;20233;-62
2021/12/13 08:44:17;;;;;;;9.27;5.87;;;10.20;99.90;;;;;;5051867;28;20216;-62
2021/12/13 08:46:48;;;;;;;7.57;5.27;;;10.40;99.90;;;;;;5051581;28;20259;-61
2021/12/13 08:49:23;;;;;;;9.80;7.43;;;10.40;99.90;;;;;;5051877;28;20262;-62
2021/12/13 08:52:02;;;;;;;6.10;5.30;;;10.50;99.90;;;;;;5051425;28;20225;-62
2021/12/13 08:54:47;;;;;;;5.93;5.30;;;10.60;99.90;;;;;;5051604;28;20649;-62
2021/12/13 08:57:35;;;;;;;7.13;5.20;;;10.60;99.90;;;;;;5051329;28;20221;-62
2021/12/13 09:00:16;;;;;;;5.57;4.87;;;10.60;99.90;;;;;;5051473;28;20210;-62
2021/12/13 09:02:47;;;;;;;7.80;5.37;;;10.60;99.90;;;;;;5051686;28;20596;-62
2021/12/13 09:05:17;;;;;;;6.90;5.37;;;10.60;99.90;;;;;;5051296;28;20205;-62
2021/12/13 09:07:49;;;;;;;6.43;5.70;;;10.80;99.90;;;;;;5051071;28;20209;-62
2021/12/13 09:10:16;;;;;;;4.97;4.47;;;10.80;99.90;;;;;;5051250;28;20296;-62
2021/12/13 09:12:45;;;;;;;6.70;5.80;;;10.90;99.90;;;;;;5051252;28;20226;-62
2021/12/13 09:15:21;;;;;;;7.40;6.30;;;11.00;99.90;;;;;;5051607;28;20230;-62
2021/12/13 09:17:51;;;;;;;6.90;5.43;;;11.00;99.90;;;;;;5055346;28;20225;-62
2021/12/13 09:20:21;;;;;;;6.37;5.10;;;11.10;99.90;;;;;;5055231;28;20220;-62
2021/12/13 09:22:51;;;;;;;9.30;6.30;;;11.20;99.90;;;;;;5055284;28;20316;-63
2021/12/13 09:25:27;;;;;;;7.63;6.20;;;11.30;99.90;;;;;;5055314;28;20205;-62
2021/12/13 09:27:57;;;;;;;6.93;5.70;;;11.40;99.90;;;;;;5055450;28;20201;-62
2021/12/13 09:30:33;;;;;;;9.30;5.50;;;11.60;99.90;;;;;;5054841;28;20231;-62
2021/12/13 09:33:06;;;;;;;7.63;5.33;;;11.70;99.90;;;;;;5055351;28;20257;-62
2021/12/13 09:35:43;;;;;;;8.87;6.03;;;11.70;99.90;;;;;;5055296;28;20210;-62
2021/12/13 09:38:41;;;;;;;6.73;5.13;;;11.80;99.90;;;;;;5055193;28;20225;-62
2021/12/13 09:41:18;;;;;;;8.53;7.67;;;11.90;99.90;;;;;;5054423;28;20693;-62
2021/12/13 09:43:50;;;;;;;8.40;6.00;;;11.90;99.90;;;;;;5051854;28;20442;-66
2021/12/13 09:46:28;;;;;;;7.80;5.93;;;11.90;99.90;;;;;;5054111;28;20591;-65
2021/12/13 09:48:58;;;;;;;6.10;5.10;;;11.80;99.90;;;;;;5048675;28;20293;-64
2021/12/13 09:51:32;;;;;;;8.63;5.43;;;11.80;99.90;;;;;;5055162;28;20224;-63
2021/12/13 09:54:03;;;;;;;6.33;5.30;;;11.50;99.90;;;;;;5054440;28;20209;-66
2021/12/13 09:56:36;;;;;;;7.37;5.37;;;11.40;99.90;;;;;;5054556;28;20225;-68
2021/12/13 09:59:14;;;;;;;6.50;5.30;;;11.30;99.90;;;;;;5054369;28;20201;-64
2021/12/13 10:01:41;;;;;;;8.63;5.23;;;11.30;99.90;;;;;;5053806;28;20229;-65
2021/12/13 10:04:12;;;;;;;8.70;5.17;;;11.20;99.90;;;;;;5054451;28;20205;-63
2021/12/13 10:06:43;;;;;;;7.60;5.27;;;11.20;99.90;;;;;;5054163;28;20255;-63
2021/12/13 10:09:13;;;;;;;7.80;5.13;;;11.00;99.90;;;;;;5054153;28;20216;-67
2021/12/13 10:11:46;;;;;;;6.07;4.57;;;10.90;99.90;;;;;;5054089;28;20229;-61
2021/12/13 10:14:16;;;;;;;8.30;5.20;;;10.80;99.90;;;;;;5053535;28;20205;-62
2021/12/13 10:16:45;;;;;;;7.37;4.50;;;10.80;99.90;;;;;;5054240;28;20222;-64
2021/12/13 10:19:17;;;;;;;7.27;4.57;;;11.00;99.90;;;;;;5054072;28;20220;-64
2021/12/13 10:21:46;;;;;;;8.13;4.87;;;11.10;99.90;;;;;;5053965;28;20225;-63
2021/12/13 10:24:17;;;;;;;6.23;4.73;;;11.10;99.90;;;;;;5053947;28;20201;-64
2021/12/13 10:26:45;;;;;;;7.27;4.97;;;11.30;99.90;;;;;;5053273;28;20206;-69
2021/12/13 10:29:13;;;;;;;6.33;5.27;;;11.40;99.90;;;;;;5053964;28;20519;-66
2021/12/13 10:31:45;;;;;;;7.23;4.53;;;11.40;99.90;;;;;;5053461;28;20724;-66
2021/12/13 10:34:15;;;;;;;6.63;5.10;;;11.50;99.90;;;;;;5053757;28;20248;-70
2021/12/13 10:36:46;;;;;;;6.53;4.30;;;11.60;99.90;;;;;;5053354;28;20228;-68
2021/12/13 10:39:19;;;;;;;5.80;4.53;;;11.70;99.90;;;;;;5053694;28;20186;-68
2021/12/13 10:41:49;;;;;;;6.23;4.23;;;11.80;99.90;;;;;;5053240;28;20404;-69
2021/12/13 10:44:25;;;;;;;5.27;4.40;;;11.90;99.90;;;;;;5053462;28;20209;-68
2021/12/13 10:46:53;;;;;;;5.50;4.03;;;11.90;99.90;;;;;;5053139;28;20213;-67
2021/12/13 10:49:26;;;;;;;5.13;3.97;;;12.00;99.90;;;;;;5053241;28;20213;-66
2021/12/13 10:51:55;;;;;;;4.40;3.97;;;12.10;99.90;;;;;;5052701;28;20229;-68
2021/12/13 10:54:26;;;;;;;5.53;4.30;;;12.20;99.90;;;;;;5053246;28;20240;-67
2021/12/13 10:56:58;;;;;;;5.47;4.10;;;12.30;99.90;;;;;;5053409;28;20224;-65
2021/12/13 10:59:29;;;;;;;6.33;4.50;;;12.40;99.90;;;;;;5053593;28;20209;-63
2021/12/13 11:01:58;;;;;;;5.47;4.73;;;12.30;99.90;;;;;;5052553;28;20228;-67
2021/12/13 11:04:33;;;;;;;5.63;4.30;;;12.40;99.90;;;;;;5053118;28;20214;-67
2021/12/13 11:07:01;;;;;;;5.43;4.40;;;12.40;99.90;;;;;;5053043;28;20291;-70
2021/12/13 11:09:28;;;;;;;5.63;4.37;;;12.50;99.90;;;;;;5053196;28;20210;-67
2021/12/13 11:11:58;;;;;;;6.70;4.63;;;12.60;99.90;;;;;;5052506;28;20244;-67
2021/12/13 11:14:27;;;;;;;5.97;4.00;;;12.70;99.90;;;;;;5031849;28;20674;-68
2021/12/13 11:16:56;;;;;;;5.00;4.10;;;12.50;99.90;;;;;;5032524;28;20235;-67
2021/12/13 11:19:28;;;;;;;4.63;3.97;;;12.20;99.90;;;;;;5043101;28;20205;-68
2021/12/13 11:22:01;;;;;;;6.07;4.10;;;12.20;99.90;;;;;;5052252;28;20222;-69
2021/12/13 11:24:33;;;;;;;6.90;4.03;;;12.20;99.90;;;;;;5052592;28;20214;-70
2021/12/13 11:27:03;;;;;;;5.23;3.97;;;12.20;99.90;;;;;;5052752;28;20206;-67
2021/12/13 11:29:32;;;;;;;5.07;3.77;;;12.20;99.90;;;;;;5052625;28;20304;-63
2021/12/13 11:32:38;;;;;;;6.33;4.00;;;12.30;99.90;;;;;;5052598;28;20228;-66
2021/12/13 11:35:43;;;;;;;4.77;3.37;;;12.40;99.90;;;;;;5053035;28;20227;-66
2021/12/13 11:38:27;;;;;;;4.80;3.67;;;12.50;99.90;;;;;;5051755;28;20607;-65
2021/12/13 11:41:24;;;;;;;5.00;4.13;;;12.40;99.90;;;;;;5052326;28;20210;-65
2021/12/13 11:44:07;;;;;;;4.80;4.20;;;12.40;99.90;;;;;;5052686;28;20241;-67
2021/12/13 11:47:19;;;;;;;5.10;3.80;;;12.30;99.90;;;;;;5052249;28;20604;-66
2021/12/13 11:50:27;;;;;;;4.87;3.90;;;12.40;99.90;;;;;;5052373;28;20209;-62
2021/12/13 11:53:43;;;;;;;4.03;3.13;;;12.50;99.90;;;;;;4971314;28;20231;-61
2021/12/13 11:56:41;;;;;;;4.47;3.70;;;12.40;99.90;;;;;;5018804;28;20636;-64
2021/12/13 11:59:26;;;;;;;4.60;3.57;;;12.10;99.90;;;;;;5053055;28;20201;-63
2021/12/13 12:02:12;;;;;;;5.13;3.43;;;12.20;99.90;;;;;;5052726;28;20230;-61
2021/12/13 12:05:16;;;;;;;3.13;2.83;;;12.10;99.90;;;;;;5052312;28;20209;-62
2021/12/13 12:08:25;;;;;;;3.67;3.10;;;11.80;99.90;;;;;;5052790;28;20208;-61
2021/12/13 12:11:29;;;;;;;5.20;4.57;;;11.40;99.90;;;;;;5053024;28;20268;-62
2021/12/13 12:14:04;;;;;;;4.83;3.70;;;11.50;99.90;;;;;;5052597;28;20205;-61
2021/12/13 12:16:36;;;;;;;4.00;3.60;;;11.70;99.90;;;;;;5052553;28;20586;-61
2021/12/13 12:19:03;;;;;;;4.30;3.53;;;11.90;99.90;;;;;;5052384;28;20229;-61
2021/12/13 12:21:47;;;;;;;5.23;4.60;;;11.60;99.90;;;;;;5051405;28;20230;-61
2021/12/13 12:24:17;;;;;;;4.27;3.60;;;11.70;99.90;;;;;;5051991;28;20202;-61
2021/12/13 12:26:51;;;;;;;4.30;2.77;;;11.80;99.90;;;;;;5051779;28;20210;-61
2021/12/13 12:29:21;;;;;;;2.80;2.33;;;11.80;99.90;;;;;;5051714;28;20687;-61
2021/12/13 12:31:51;;;;;;;2.20;2.00;;;12.00;99.90;;;;;;5051430;28;20608;-61
2021/12/13 12:34:18;;;;;;;2.30;2.03;;;11.90;99.90;;;;;;5051986;28;20209;-61
2021/12/13 12:37:12;;;;;;;4.80;4.07;;;12.00;99.90;;;;;;5051774;28;20206;-61
2021/12/13 12:40:05;;;;;;;2.93;2.00;;;12.20;99.90;;;;;;5052401;28;20624;-61
2021/12/13 12:42:35;;;;;;;3.07;2.23;;;12.10;99.90;;;;;;5052281;28;20324;-60
2021/12/13 12:45:13;;;;;;;3.67;2.00;;;12.00;99.90;;;;;;5052515;28;20205;-61
2021/12/13 12:48:18;;;;;;;7.60;2.37;;;11.90;99.90;;;;;;5052517;28;20351;-60
2021/12/13 12:50:57;;;;;;;4.03;2.70;;;12.10;99.90;;;;;;5054521;28;20193;-60
2021/12/13 12:53:33;;;;;;;5.50;2.20;;;12.30;99.90;;;;;;5055722;28;20311;-60
2021/12/13 12:56:05;;;;;;;2.03;1.67;;;12.40;99.90;;;;;;5055589;28;20300;-60
2021/12/13 12:58:35;;;;;;;3.53;2.47;;;12.60;99.90;;;;;;5055473;28;20229;-60
2021/12/13 13:01:06;;;;;;;2.43;1.90;;;12.50;99.90;;;;;;5055229;28;20205;-60
2021/12/13 13:03:35;;;;;;;2.70;2.10;;;12.50;99.90;;;;;;5055421;28;20424;-61
2021/12/13 13:06:06;;;;;;;3.07;2.57;;;12.50;99.90;;;;;;5055635;28;20209;-59
2021/12/13 13:08:35;;;;;;;4.63;3.07;;;12.50;99.90;;;;;;5055551;28;20201;-60
2021/12/13 13:13:51;;;;;;;2.67;2.20;;;12.40;99.90;;;;;;5055510;28;20270;-60
2021/12/13 13:16:20;;;;;;;2.77;2.20;;;12.50;99.90;;;;;;5055377;28;20221;-61
2021/12/13 13:18:47;;;;;;;2.93;2.50;;;12.50;99.90;;;;;;5055243;28;20233;-60
2021/12/13 13:21:17;;;;;;;3.80;2.90;;;12.40;99.90;;;;;;5055044;28;20209;-61
2021/12/13 13:23:47;;;;;;;4.37;2.60;;;12.40;99.90;;;;;;5055126;28;20275;-62
2021/12/13 13:26:16;;;;;;;3.20;2.90;;;12.40;99.90;;;;;;5055361;28;20217;-61
2021/12/13 13:28:47;;;;;;;2.67;2.47;;;12.40;99.90;;;;;;5054710;28;20727;-60
2021/12/13 13:31:19;;;;;;;2.90;2.60;;;12.40;99.90;;;;;;5055129;28;20213;-61
2021/12/13 13:33:49;;;;;;;2.60;2.40;;;12.40;99.90;;;;;;5054962;28;20267;-60